createdAt,value
2022-09-05T00:00:11.774Z,21.60
2022-09-05T00:03:01.533Z,21.50
2022-09-05T00:06:02.778Z,21.50
2022-09-05T00:08:50.906Z,21.40
2022-09-05T00:11:41.086Z,21.40
2022-09-05T00:15:17.358Z,21.40
2022-09-05T00:18:39.727Z,21.30
2022-09-05T00:24:30.061Z,21.30
2022-09-05T00:24:37.913Z,21.30
2022-09-05T00:26:56.701Z,21.20
2022-09-05T00:31:05.738Z,21.20
2022-09-05T00:33:24.180Z,21.20
2022-09-05T00:36:13.401Z,21.10
2022-09-05T00:38:52.139Z,21.10
2022-09-05T00:41:20.340Z,21.00
2022-09-05T00:43:51.727Z,21.00
2022-09-05T00:46:27.551Z,21.00
2022-09-05T00:49:18.379Z,20.90
2022-09-05T00:51:58.949Z,20.90
2022-09-05T00:54:51.553Z,20.80
2022-09-05T00:57:43.269Z,20.80
2022-09-05T01:00:19.211Z,20.80
2022-09-05T01:03:29.279Z,20.80
2022-09-05T01:06:19.126Z,20.70
2022-09-05T01:09:26.060Z,20.70
2022-09-05T01:12:15.060Z,20.60
2022-09-05T01:15:08.060Z,20.60
2022-09-05T01:17:53.514Z,20.60
2022-09-05T01:20:40.260Z,20.60
2022-09-05T01:23:37.178Z,20.60
2022-09-05T01:26:41.982Z,20.50
2022-09-05T01:29:26.095Z,20.50
2022-09-05T01:32:16.305Z,20.40
2022-09-05T01:35:04.768Z,20.30
2022-09-05T01:37:45.276Z,20.30
2022-09-05T01:40:29.103Z,20.30
2022-09-05T01:43:20.781Z,20.20
2022-09-05T01:45:53.526Z,20.20
2022-09-05T01:48:35.237Z,20.20
2022-09-05T01:51:28.877Z,20.10
2022-09-05T01:54:24.370Z,20.10
2022-09-05T01:57:10.624Z,20.10
2022-09-05T01:59:49.284Z,20.00
2022-09-05T02:02:50.400Z,20.00
2022-09-05T02:06:14.103Z,19.90
2022-09-05T02:09:18.725Z,19.90
2022-09-05T02:11:53.456Z,19.80
2022-09-05T02:14:38.985Z,19.80
2022-09-05T02:17:50.120Z,19.80
2022-09-05T02:20:23.967Z,19.80
2022-09-05T02:23:34.210Z,19.70
2022-09-05T02:26:04.138Z,19.70
2022-09-05T02:28:45.875Z,19.70
2022-09-05T02:31:22.078Z,19.60
2022-09-05T02:34:03.066Z,19.60
2022-09-05T02:36:44.475Z,19.60
2022-09-05T02:45:04.305Z,19.50
2022-09-05T02:45:20.931Z,19.50
2022-09-05T02:45:28.760Z,19.50
2022-09-05T02:48:19.402Z,19.40
2022-09-05T02:57:25.162Z,19.40
2022-09-05T02:57:37.800Z,19.40
2022-09-05T02:57:38.339Z,19.40
2022-09-05T03:00:16.501Z,19.30
2022-09-05T03:03:17.705Z,19.30
2022-09-05T03:05:58.153Z,19.30
2022-09-05T03:08:49.502Z,19.20
2022-09-05T03:12:28.938Z,19.20
2022-09-05T03:15:44.493Z,19.10
2022-09-05T03:19:02.554Z,19.10
2022-09-05T03:22:18.471Z,19.10
2022-09-05T03:25:53.938Z,19.00
2022-09-05T03:29:29.099Z,19.00
2022-09-05T03:32:42.059Z,19.00
2022-09-05T03:36:08.643Z,18.90
2022-09-05T03:39:28.686Z,18.90
2022-09-05T03:42:35.083Z,18.80
2022-09-05T03:45:44.422Z,18.80
2022-09-05T03:48:43.069Z,18.80
2022-09-05T03:57:06.447Z,18.80
2022-09-05T03:57:18.472Z,18.70
2022-09-05T03:58:59.392Z,18.70
2022-09-05T04:03:42.235Z,18.70
2022-09-05T04:08:18.371Z,18.60
2022-09-05T04:08:26.467Z,18.60
2022-09-05T04:10:33.359Z,18.60
2022-09-05T04:13:08.852Z,18.60
2022-09-05T04:15:44.587Z,18.60
2022-09-05T04:18:34.956Z,18.50
2022-09-05T04:21:13.365Z,18.50
2022-09-05T04:24:10.885Z,18.50
2022-09-05T04:27:13.819Z,18.50
2022-09-05T04:29:58.802Z,18.50
2022-09-05T04:32:46.009Z,18.40
2022-09-05T04:35:34.316Z,18.40
2022-09-05T04:38:13.802Z,18.40
2022-09-05T04:40:49.241Z,18.40
2022-09-05T04:43:29.734Z,18.30
2022-09-05T04:46:12.361Z,18.30
2022-09-05T04:48:52.574Z,18.30
2022-09-05T04:52:00.028Z,18.30
2022-09-05T04:54:38.500Z,18.30
2022-09-05T04:57:21.817Z,18.30
2022-09-05T05:05:58.740Z,18.20
2022-09-05T05:06:08.917Z,18.20
2022-09-05T05:06:12.587Z,18.20
2022-09-05T05:08:55.419Z,18.10
2022-09-05T05:15:17.203Z,18.10
2022-09-05T05:18:08.631Z,18.10
2022-09-05T05:18:11.658Z,18.10
2022-09-05T05:20:40.445Z,18.10
2022-09-05T05:23:15.908Z,18.10
2022-09-05T05:25:51.413Z,18.10
2022-09-05T05:28:28.973Z,18.10
2022-09-05T05:31:10.711Z,18.10
2022-09-05T05:33:41.815Z,18.10
2022-09-05T05:36:20.023Z,18.00
2022-09-05T05:38:56.427Z,18.00
2022-09-05T05:41:36.157Z,18.00
2022-09-05T05:44:14.196Z,18.00
2022-09-05T05:46:47.451Z,18.00
2022-09-05T05:49:46.207Z,18.00
2022-09-05T05:52:58.555Z,18.00
2022-09-05T05:55:59.604Z,18.00
2022-09-05T05:58:56.035Z,18.00
2022-09-05T06:02:06.571Z,18.10
2022-09-05T06:05:29.852Z,18.10
2022-09-05T06:10:41.699Z,18.10
2022-09-05T06:15:05.030Z,18.10
2022-09-05T06:15:31.094Z,18.10
2022-09-05T06:18:54.450Z,18.20
2022-09-05T06:22:10.651Z,18.20
2022-09-05T06:25:43.500Z,18.30
2022-09-05T06:28:25.909Z,18.30
2022-09-05T06:31:29.520Z,18.40
2022-09-05T06:34:32.821Z,18.40
2022-09-05T06:37:17.764Z,18.40
2022-09-05T06:40:09.417Z,18.50
2022-09-05T06:43:03.023Z,18.60
2022-09-05T06:46:03.275Z,18.60
2022-09-05T06:48:58.622Z,18.70
2022-09-05T06:52:33.100Z,18.80
2022-09-05T06:55:51.249Z,18.90
2022-09-05T06:59:21.866Z,19.00
2022-09-05T07:02:01.138Z,19.10
2022-09-05T07:05:24.094Z,19.20
2022-09-05T07:07:45.608Z,19.30
2022-09-05T07:10:38.429Z,19.40
2022-09-05T07:13:17.049Z,19.40
2022-09-05T07:15:57.317Z,19.50
2022-09-05T07:18:36.176Z,19.60
2022-09-05T07:24:44.175Z,19.90
2022-09-05T07:27:55.972Z,20.00
2022-09-05T07:30:24.518Z,20.20
2022-09-05T07:32:56.441Z,20.40
2022-09-05T07:35:31.122Z,20.50
2022-09-05T07:38:14.980Z,20.60
2022-09-05T07:40:52.787Z,20.80
2022-09-05T07:43:26.631Z,21.00
2022-09-05T07:46:11.536Z,21.20
2022-09-05T07:48:45.204Z,21.40
2022-09-05T07:56:48.858Z,21.50
2022-09-05T07:57:00.801Z,21.70
2022-09-05T07:57:30.317Z,21.90
2022-09-05T08:00:25.564Z,22.10
2022-09-05T08:02:56.228Z,22.30
2022-09-05T08:05:34.886Z,22.50
2022-09-05T08:08:10.335Z,22.60
2022-09-05T08:11:22.243Z,22.80
2022-09-05T08:14:10.480Z,23.00
2022-09-05T08:16:48.672Z,23.20
2022-09-05T08:20:08.591Z,23.30
2022-09-05T08:22:52.391Z,23.50
2022-09-05T08:25:36.250Z,23.70
2022-09-05T08:28:39.422Z,23.90
2022-09-05T08:31:15.741Z,24.00
2022-09-05T08:33:45.044Z,24.20
2022-09-05T08:36:27.597Z,24.40
2022-09-05T08:39:00.383Z,24.50
2022-09-05T08:41:49.720Z,24.60
2022-09-05T08:46:47.821Z,24.80
2022-09-05T08:47:45.021Z,24.90
2022-09-05T08:50:34.292Z,25.10
2022-09-05T08:53:35.353Z,25.30
2022-09-05T08:56:18.110Z,25.40
2022-09-05T08:59:32.128Z,25.60
2022-09-05T09:02:47.426Z,25.80
2022-09-05T09:05:15.842Z,26.00
2022-09-05T09:07:54.915Z,26.20
2022-09-05T09:10:47.983Z,26.40
2022-09-05T09:13:35.850Z,26.50
2022-09-05T09:16:10.881Z,26.70
2022-09-05T09:19:07.926Z,26.80
2022-09-05T09:21:43.447Z,26.90
2022-09-05T09:24:30.050Z,27.10
2022-09-05T09:27:06.241Z,27.20
2022-09-05T09:29:41.092Z,27.30
2022-09-05T09:32:15.019Z,27.30
2022-09-05T09:34:57.715Z,27.40
2022-09-05T09:38:09.995Z,27.60
2022-09-05T09:41:31.955Z,27.70
2022-09-05T09:45:28.685Z,27.90
2022-09-05T09:48:51.651Z,28.00
2022-09-05T09:51:39.053Z,28.20
2022-09-05T09:54:50.944Z,28.30
2022-09-05T09:57:57.301Z,28.50
2022-09-05T10:00:30.479Z,28.60
2022-09-05T10:09:15.019Z,28.70
2022-09-05T10:10:45.282Z,28.80
2022-09-05T10:10:52.198Z,28.90
2022-09-05T10:13:25.712Z,29.10
2022-09-05T10:16:52.798Z,29.20
2022-09-05T10:20:10.604Z,29.30
2022-09-05T10:23:15.392Z,29.30
2022-09-05T10:26:37.046Z,29.30
2022-09-05T10:29:37.045Z,29.30
2022-09-05T10:35:10.678Z,29.40
2022-09-05T10:35:15.252Z,29.40
2022-09-05T10:37:59.786Z,29.50
2022-09-05T10:41:19.871Z,29.60
2022-09-05T10:43:29.065Z,29.60
2022-09-05T10:46:20.111Z,29.70
2022-09-05T10:49:11.670Z,29.80
2022-09-05T10:51:52.123Z,29.80
2022-09-05T10:54:41.012Z,29.80
2022-09-05T10:57:33.391Z,29.80
2022-09-05T11:02:24.776Z,29.80
2022-09-05T11:03:22.953Z,29.80
2022-09-05T11:05:59.644Z,29.80
2022-09-05T11:08:46.894Z,29.90
2022-09-05T11:11:28.602Z,30.00
2022-09-05T11:14:26.399Z,30.10
2022-09-05T11:17:06.983Z,30.20
2022-09-05T11:19:44.307Z,30.30
2022-09-05T11:22:23.731Z,30.50
2022-09-05T11:24:58.132Z,30.60
2022-09-05T11:27:35.298Z,30.70
2022-09-05T11:30:08.052Z,30.70
2022-09-05T11:39:59.545Z,30.70
2022-09-05T11:40:07.229Z,30.70
2022-09-05T11:40:30.086Z,30.60
2022-09-05T11:43:57.394Z,30.60
2022-09-05T11:46:53.774Z,30.60
2022-09-05T11:50:29.302Z,30.70
2022-09-05T11:53:43.324Z,30.60
2022-09-05T11:56:49.994Z,30.60
2022-09-05T12:00:10.713Z,30.60
2022-09-05T12:03:41.513Z,30.70
2022-09-05T12:07:26.322Z,30.80
2022-09-05T12:13:26.527Z,30.80
2022-09-05T12:16:08.476Z,30.90
2022-09-05T12:18:55.765Z,30.90
2022-09-05T12:21:38.860Z,30.90
2022-09-05T12:25:15.924Z,30.90
2022-09-05T12:30:01.002Z,31.00
2022-09-05T12:34:02.731Z,31.00
2022-09-05T12:36:07.238Z,31.00
2022-09-05T12:41:14.845Z,31.00
2022-09-05T12:41:41.715Z,30.90
2022-09-05T12:42:10.210Z,31.00
2022-09-05T12:42:10.356Z,30.80
2022-09-05T12:44:47.236Z,31.00
2022-09-05T12:47:23.001Z,31.10
2022-09-05T12:50:14.249Z,31.20
2022-09-05T12:52:46.470Z,31.40
2022-09-05T12:55:26.656Z,31.40
2022-09-05T13:01:12.702Z,31.50
2022-09-05T13:03:13.877Z,31.60
2022-09-05T13:04:16.780Z,31.60
2022-09-05T13:06:54.801Z,31.60
2022-09-05T13:09:37.176Z,31.50
2022-09-05T13:14:53.610Z,31.50
2022-09-05T13:15:23.290Z,31.40
2022-09-05T13:18:00.877Z,31.40
2022-09-05T13:20:36.516Z,31.40
2022-09-05T13:23:21.223Z,31.50
2022-09-05T13:25:58.529Z,31.50
2022-09-05T13:28:42.966Z,31.50
2022-09-05T13:37:53.963Z,31.50
2022-09-05T13:37:59.202Z,31.50
2022-09-05T13:38:03.935Z,31.50
2022-09-05T13:40:02.537Z,31.50
2022-09-05T13:42:36.719Z,31.50
2022-09-05T13:45:11.242Z,31.40
2022-09-05T13:49:23.539Z,31.30
2022-09-05T13:51:36.452Z,31.30
2022-09-05T13:54:36.255Z,31.30
2022-09-05T13:57:36.760Z,31.30
2022-09-05T14:01:11.259Z,31.40
2022-09-05T14:07:45.102Z,31.40
2022-09-05T14:11:01.293Z,31.50
2022-09-05T14:13:46.858Z,31.50
2022-09-05T14:16:24.249Z,31.60
2022-09-05T14:19:11.915Z,31.60
2022-09-05T14:21:42.987Z,31.60
2022-09-05T14:24:17.006Z,31.60
2022-09-05T14:27:13.772Z,31.70
2022-09-05T14:29:50.822Z,31.70
2022-09-05T14:37:46.473Z,31.70
2022-09-05T14:37:54.322Z,31.90
2022-09-05T14:39:08.502Z,32.00
2022-09-05T14:42:12.296Z,32.10
2022-09-05T14:45:25.863Z,32.20
2022-09-05T14:48:34.004Z,32.40
2022-09-05T14:51:25.952Z,32.40
2022-09-05T14:54:05.212Z,32.30
2022-09-05T15:00:18.628Z,32.30
2022-09-05T15:02:49.442Z,32.20
2022-09-05T15:02:53.586Z,32.10
2022-09-05T15:05:36.525Z,32.30
2022-09-05T15:08:10.437Z,32.30
2022-09-05T15:13:31.515Z,32.60
2022-09-05T15:16:09.835Z,32.70
2022-09-05T15:18:44.406Z,32.80
2022-09-05T15:21:33.179Z,32.90
2022-09-05T15:24:21.231Z,33.00
2022-09-05T15:26:53.562Z,33.10
2022-09-05T15:29:26.315Z,33.10
2022-09-05T15:32:11.706Z,33.30
2022-09-05T15:34:41.290Z,33.30
2022-09-05T15:37:36.825Z,33.30
2022-09-05T15:40:21.945Z,33.30
2022-09-05T15:42:56.499Z,33.30
2022-09-05T15:45:28.236Z,33.30
2022-09-05T15:48:34.006Z,33.20
2022-09-05T15:51:38.087Z,33.20
2022-09-05T15:54:06.787Z,33.00
2022-09-05T15:56:47.089Z,33.00
2022-09-05T15:59:16.359Z,33.00
2022-09-05T16:01:59.507Z,32.90
2022-09-05T16:08:25.119Z,32.80
2022-09-05T16:10:45.591Z,32.70
2022-09-05T16:10:49.816Z,32.70
2022-09-05T16:13:15.391Z,32.60
2022-09-05T16:18:55.845Z,32.50
2022-09-05T16:23:16.852Z,32.30
2022-09-05T16:23:27.979Z,32.40
2022-09-05T16:24:59.341Z,32.20
2022-09-05T16:27:45.711Z,32.20
2022-09-05T16:30:23.875Z,32.20
2022-09-05T16:33:00.715Z,32.10
2022-09-05T16:35:32.421Z,32.10
2022-09-05T16:38:14.607Z,32.00
2022-09-05T16:40:57.665Z,31.90
2022-09-05T16:43:32.211Z,31.80
2022-09-05T16:46:09.386Z,31.80
2022-09-05T16:48:47.142Z,31.80
2022-09-05T16:51:34.984Z,31.70
2022-09-05T16:54:14.149Z,31.60
2022-09-05T16:56:48.430Z,31.60
2022-09-05T16:59:20.770Z,31.50
2022-09-05T17:02:08.205Z,31.50
2022-09-05T17:05:06.198Z,31.50
2022-09-05T17:08:01.399Z,31.40
2022-09-05T17:10:35.844Z,31.30
2022-09-05T17:13:08.843Z,31.30
2022-09-05T17:15:51.699Z,31.20
2022-09-05T17:18:26.115Z,31.10
2022-09-05T17:21:01.565Z,31.00
2022-09-05T17:26:40.445Z,31.00
2022-09-05T17:29:33.610Z,31.00
2022-09-05T17:32:48.410Z,30.80
2022-09-05T17:35:42.441Z,30.70
2022-09-05T17:38:52.614Z,30.60
2022-09-05T17:41:43.173Z,30.50
2022-09-05T17:44:21.293Z,30.50
2022-09-05T17:47:15.218Z,30.40
2022-09-05T17:49:46.756Z,30.30
2022-09-05T17:52:24.708Z,30.20
2022-09-05T17:54:55.216Z,30.10
2022-09-05T17:57:41.879Z,30.00
2022-09-05T18:01:00.864Z,29.90
2022-09-05T18:04:17.686Z,29.80
2022-09-05T18:07:00.196Z,29.70
2022-09-05T18:16:12.220Z,29.40
2022-09-05T18:21:51.532Z,29.20
2022-09-05T18:27:43.876Z,29.10
2022-09-05T18:30:33.034Z,29.00
2022-09-05T18:33:54.407Z,29.00
2022-09-05T18:36:34.724Z,28.90
2022-09-05T18:39:44.588Z,28.80
2022-09-05T18:42:25.904Z,28.80
2022-09-05T18:44:59.961Z,28.70
2022-09-05T18:47:52.906Z,28.60
2022-09-05T18:50:32.105Z,28.50
2022-09-05T18:53:10.708Z,28.40
2022-09-05T18:56:14.352Z,28.40
2022-09-05T18:59:09.375Z,28.20
2022-09-05T19:01:43.542Z,28.20
2022-09-05T19:04:41.000Z,28.00
2022-09-05T19:07:13.745Z,28.00
2022-09-05T19:10:36.255Z,27.90
2022-09-05T19:12:58.731Z,27.80
2022-09-05T19:15:33.589Z,27.80
2022-09-05T19:18:27.187Z,27.70
2022-09-05T19:21:18.931Z,27.70
2022-09-05T19:23:53.919Z,27.60
2022-09-05T19:26:23.587Z,27.60
2022-09-05T19:36:45.721Z,27.50
2022-09-05T19:36:48.936Z,27.40
2022-09-05T19:36:58.278Z,27.50
2022-09-05T19:37:48.294Z,27.40
2022-09-05T19:43:24.139Z,27.40
2022-09-05T19:47:35.919Z,27.30
2022-09-05T19:47:38.168Z,27.30
2022-09-05T19:49:07.785Z,27.20
2022-09-05T19:51:36.588Z,27.10
2022-09-05T19:54:06.103Z,27.10
2022-09-05T19:56:38.757Z,27.10
2022-09-05T19:59:19.120Z,27.00
2022-09-05T20:01:50.421Z,27.00
2022-09-05T20:04:19.511Z,26.90
2022-09-05T20:06:49.447Z,26.80
2022-09-05T20:09:20.583Z,26.80
2022-09-05T20:11:50.376Z,26.70
2022-09-05T20:14:23.432Z,26.60
2022-09-05T20:16:58.041Z,26.60
2022-09-05T20:19:33.148Z,26.50
2022-09-05T20:22:37.116Z,26.50
2022-09-05T20:24:55.786Z,26.40
2022-09-05T20:27:28.243Z,26.40
2022-09-05T20:30:00.316Z,26.30
2022-09-05T20:32:39.514Z,26.30
2022-09-05T20:41:32.181Z,26.20
2022-09-05T20:43:15.642Z,26.10
2022-09-05T20:43:22.629Z,26.20
2022-09-05T20:44:01.554Z,26.10
2022-09-05T20:50:26.114Z,26.00
2022-09-05T20:54:09.299Z,26.00
2022-09-05T20:54:14.521Z,25.90
2022-09-05T20:55:41.419Z,25.90
2022-09-05T20:58:13.551Z,25.80
2022-09-05T21:01:20.827Z,25.80
2022-09-05T21:03:40.927Z,25.70
2022-09-05T21:06:29.373Z,25.70
2022-09-05T21:09:25.690Z,25.60
2022-09-05T21:11:55.869Z,25.60
2022-09-05T21:14:28.292Z,25.60
2022-09-05T21:17:14.733Z,25.50
2022-09-05T21:19:53.887Z,25.50
2022-09-05T21:22:33.186Z,25.50
2022-09-05T21:25:21.091Z,25.40
2022-09-05T21:28:03.104Z,25.40
2022-09-05T21:30:34.854Z,25.40
2022-09-05T21:33:12.956Z,25.30
2022-09-05T21:35:52.030Z,25.30
2022-09-05T21:38:32.954Z,25.30
2022-09-05T21:41:03.109Z,25.30
2022-09-05T21:47:10.546Z,25.20
2022-09-05T21:47:48.625Z,25.20
2022-09-05T21:49:14.202Z,25.10
2022-09-05T21:51:48.038Z,25.10
2022-09-05T21:59:14.070Z,25.10
2022-09-05T21:59:29.034Z,25.00
2022-09-05T22:00:11.269Z,25.00
2022-09-05T22:02:39.663Z,24.90
2022-09-05T22:05:08.327Z,24.90
2022-09-05T22:07:37.444Z,24.90
2022-09-05T22:10:09.608Z,24.90
2022-09-05T22:12:38.797Z,24.80
2022-09-05T22:15:26.510Z,24.80
2022-09-05T22:18:17.275Z,24.70
2022-09-05T22:21:31.733Z,24.70
2022-09-05T22:23:49.063Z,24.60
2022-09-05T22:26:20.383Z,24.60
2022-09-05T22:28:49.631Z,24.60
2022-09-05T22:31:18.601Z,24.50
2022-09-05T22:33:50.616Z,24.50
2022-09-05T22:36:19.417Z,24.40
2022-09-05T22:38:47.578Z,24.40
2022-09-05T22:41:15.908Z,24.40
2022-09-05T22:43:47.271Z,24.40
2022-09-05T22:46:15.909Z,24.30
2022-09-05T22:48:43.953Z,24.30
2022-09-05T22:51:12.143Z,24.20
2022-09-05T22:53:40.246Z,24.20
2022-09-05T22:56:10.341Z,24.20
2022-09-05T22:58:45.057Z,24.20
2022-09-05T23:01:14.692Z,24.10
2022-09-05T23:03:42.684Z,24.10
2022-09-05T23:06:11.874Z,24.00
2022-09-05T23:08:39.964Z,24.00
2022-09-05T23:11:08.884Z,24.00
2022-09-05T23:13:36.887Z,24.00
2022-09-05T23:16:05.617Z,24.00
2022-09-05T23:18:35.697Z,24.00
2022-09-05T23:21:05.250Z,23.90
2022-09-05T23:23:33.513Z,23.90
2022-09-05T23:26:01.949Z,23.90
2022-09-05T23:28:30.208Z,23.90
2022-09-05T23:31:00.300Z,23.90
2022-09-05T23:33:29.240Z,23.80
2022-09-05T23:36:02.496Z,23.80
2022-09-05T23:38:31.042Z,23.80
2022-09-05T23:41:03.163Z,23.80
2022-09-05T23:43:31.489Z,23.80
2022-09-05T23:45:59.974Z,23.70
2022-09-05T23:48:28.539Z,23.70
2022-09-05T23:50:57.256Z,23.70
2022-09-05T23:53:26.845Z,23.60
2022-09-05T23:55:54.820Z,23.60
2022-09-05T23:58:22.808Z,23.60
